createdAt,value
2023-10-23T00:00:04.830Z,9.49
2023-10-23T00:03:14.055Z,9.30
2023-10-23T00:06:16.723Z,9.10
2023-10-23T00:09:19.195Z,9.02
2023-10-23T00:12:21.840Z,9.03
2023-10-23T00:15:24.295Z,8.94
2023-10-23T00:18:26.700Z,8.87
2023-10-23T00:21:29.172Z,8.79
2023-10-23T00:24:31.581Z,8.68
2023-10-23T00:27:34.006Z,8.66
2023-10-23T00:30:37.296Z,8.72
2023-10-23T00:33:40.004Z,8.76
2023-10-23T00:36:42.623Z,8.77
2023-10-23T00:39:45.128Z,8.72
2023-10-23T00:42:47.579Z,8.57
2023-10-23T00:45:59.214Z,8.68
2023-10-23T00:49:02.424Z,8.69
2023-10-23T00:52:05.249Z,8.40
2023-10-23T00:55:08.606Z,8.41
2023-10-23T00:58:11.227Z,8.51
2023-10-23T01:01:14.427Z,8.34
2023-10-23T01:04:17.569Z,8.23
2023-10-23T01:07:19.919Z,8.15
2023-10-23T01:10:22.563Z,8.05
2023-10-23T01:13:26.602Z,7.99
2023-10-23T01:16:29.080Z,8.03
2023-10-23T01:19:31.497Z,8.02
2023-10-23T01:22:33.865Z,7.96
2023-10-23T01:25:36.217Z,8.00
2023-10-23T01:28:38.680Z,7.98
2023-10-23T01:31:41.152Z,8.00
2023-10-23T01:34:43.667Z,7.92
2023-10-23T01:37:46.870Z,8.10
2023-10-23T01:40:49.396Z,7.99
2023-10-23T01:43:51.986Z,8.19
2023-10-23T01:46:54.415Z,8.05
2023-10-23T01:49:56.871Z,7.97
2023-10-23T01:52:59.217Z,7.89
2023-10-23T01:56:11.300Z,8.03
2023-10-23T01:59:13.702Z,8.00
2023-10-23T02:02:16.074Z,7.99
2023-10-23T02:05:18.577Z,7.88
2023-10-23T02:08:25.141Z,7.84
2023-10-23T02:11:27.666Z,7.70
2023-10-23T02:14:31.320Z,7.74
2023-10-23T02:17:33.857Z,7.78
2023-10-23T02:20:36.335Z,7.69
2023-10-23T02:23:53.333Z,7.63
2023-10-23T02:26:58.327Z,7.55
2023-10-23T02:30:00.758Z,7.48
2023-10-23T02:33:03.297Z,7.46
2023-10-23T02:36:06.106Z,7.39
2023-10-23T02:39:08.431Z,7.44
2023-10-23T02:42:10.757Z,7.41
2023-10-23T02:45:14.788Z,7.47
2023-10-23T02:48:18.277Z,7.41
2023-10-23T02:51:21.627Z,7.30
2023-10-23T02:54:24.110Z,7.32
2023-10-23T02:57:27.146Z,7.40
2023-10-23T03:00:30.181Z,7.40
2023-10-23T03:03:32.695Z,7.42
2023-10-23T03:06:36.147Z,7.43
2023-10-23T03:09:38.897Z,7.52
2023-10-23T03:12:41.472Z,7.23
2023-10-23T03:15:44.822Z,7.13
2023-10-23T03:18:47.362Z,7.00
2023-10-23T03:21:49.850Z,7.01
2023-10-23T03:24:52.318Z,6.99
2023-10-23T03:27:55.770Z,7.07
2023-10-23T03:31:01.579Z,7.08
2023-10-23T03:34:03.952Z,7.08
2023-10-23T03:37:06.324Z,7.11
2023-10-23T03:40:11.303Z,6.93
2023-10-23T03:43:13.722Z,6.94
2023-10-23T03:46:16.215Z,7.02
2023-10-23T03:49:18.849Z,7.15
2023-10-23T03:52:21.227Z,7.13
2023-10-23T03:55:23.605Z,7.16
2023-10-23T03:58:26.062Z,7.07
2023-10-23T04:01:28.467Z,7.16
2023-10-23T04:04:32.915Z,7.07
2023-10-23T04:07:35.598Z,7.03
2023-10-23T04:10:37.984Z,6.96
2023-10-23T04:13:40.315Z,6.90
2023-10-23T04:16:43.405Z,6.88
2023-10-23T04:19:48.856Z,6.97
2023-10-23T04:22:51.192Z,6.99
2023-10-23T04:25:56.950Z,6.97
2023-10-23T04:28:59.300Z,6.90
2023-10-23T04:32:01.784Z,6.84
2023-10-23T04:35:04.505Z,6.95
2023-10-23T04:38:06.844Z,6.91
2023-10-23T04:41:09.227Z,7.08
2023-10-23T04:44:11.626Z,7.19
2023-10-23T04:47:14.023Z,7.40
2023-10-23T04:50:17.529Z,7.39
2023-10-23T04:53:20.679Z,7.41
2023-10-23T04:56:23.057Z,7.10
2023-10-23T04:59:25.459Z,7.12
2023-10-23T05:02:27.866Z,7.11
2023-10-23T05:05:31.152Z,7.12
2023-10-23T05:08:33.526Z,7.25
2023-10-23T05:11:35.897Z,7.32
2023-10-23T05:14:38.285Z,7.33
2023-10-23T05:17:40.689Z,7.35
2023-10-23T05:20:43.092Z,7.52
2023-10-23T05:23:45.451Z,7.43
2023-10-23T05:26:47.766Z,7.45
2023-10-23T05:29:50.085Z,7.43
2023-10-23T05:32:52.492Z,7.35
2023-10-23T05:36:10.629Z,7.46
2023-10-23T05:39:13.152Z,7.50
2023-10-23T05:42:15.509Z,7.42
2023-10-23T05:45:17.883Z,7.41
2023-10-23T05:48:20.343Z,7.54
2023-10-23T05:51:23.204Z,7.60
2023-10-23T05:54:26.473Z,7.66
2023-10-23T05:57:28.946Z,7.67
2023-10-23T06:00:31.438Z,7.80
2023-10-23T06:03:35.122Z,7.91
2023-10-23T06:06:37.856Z,7.92
2023-10-23T06:09:40.708Z,7.92
2023-10-23T06:12:43.463Z,8.01
2023-10-23T06:15:46.656Z,8.16
2023-10-23T06:18:49.089Z,8.33
2023-10-23T06:21:51.531Z,8.27
2023-10-23T06:24:54.004Z,8.48
2023-10-23T06:27:56.959Z,8.68
2023-10-23T06:31:06.910Z,8.86
2023-10-23T06:34:09.407Z,9.68
2023-10-23T06:37:11.827Z,10.77
2023-10-23T06:40:14.203Z,12.81
2023-10-23T06:43:17.065Z,15.06
2023-10-23T06:46:20.551Z,16.24
2023-10-23T06:49:22.962Z,17.10
2023-10-23T06:52:25.409Z,17.43
2023-10-23T06:55:30.571Z,17.32
2023-10-23T06:58:32.960Z,17.04
2023-10-23T07:01:44.373Z,16.00
2023-10-23T07:04:49.126Z,15.31
2023-10-23T07:07:51.651Z,15.41
2023-10-23T07:10:55.422Z,14.47
2023-10-23T07:13:57.840Z,14.37
2023-10-23T07:17:00.296Z,14.12
2023-10-23T07:20:02.848Z,14.05
2023-10-23T07:23:05.359Z,14.69
2023-10-23T07:26:12.315Z,15.20
2023-10-23T07:29:14.663Z,15.29
2023-10-23T07:32:17.072Z,14.81
2023-10-23T07:35:19.544Z,14.22
2023-10-23T07:38:21.880Z,13.97
2023-10-23T07:41:24.305Z,13.99
2023-10-23T07:44:28.331Z,14.12
2023-10-23T07:47:30.732Z,14.60
2023-10-23T07:50:33.721Z,15.33
2023-10-23T07:53:38.623Z,15.75
2023-10-23T07:56:41.060Z,16.15
2023-10-23T07:59:43.441Z,16.12
2023-10-23T08:02:45.971Z,15.93
2023-10-23T08:05:48.413Z,16.05
2023-10-23T08:08:50.801Z,16.25
2023-10-23T08:11:54.727Z,16.42
2023-10-23T08:14:57.259Z,16.87
2023-10-23T08:18:00.302Z,17.60
2023-10-23T08:21:16.533Z,17.71
2023-10-23T08:24:19.255Z,17.28
2023-10-23T08:27:21.990Z,17.87
2023-10-23T08:30:24.391Z,19.04
2023-10-23T08:33:26.906Z,20.21
2023-10-23T08:36:29.468Z,21.02
2023-10-23T08:39:31.903Z,21.94
2023-10-23T08:42:35.327Z,21.60
2023-10-23T08:45:41.150Z,21.19
2023-10-23T08:48:43.673Z,21.79
2023-10-23T08:51:50.734Z,22.23
2023-10-23T08:54:54.530Z,22.56
2023-10-23T08:58:00.266Z,23.00
2023-10-23T09:01:04.638Z,24.03
2023-10-23T09:04:08.584Z,24.34
2023-10-23T09:07:11.432Z,24.96
2023-10-23T09:10:13.957Z,24.96
2023-10-23T09:13:16.371Z,24.63
2023-10-23T09:16:19.134Z,24.36
2023-10-23T09:19:28.409Z,24.92
2023-10-23T09:22:30.948Z,21.95
2023-10-23T09:25:33.340Z,21.31
2023-10-23T09:28:35.677Z,19.45
2023-10-23T09:31:42.091Z,19.80
2023-10-23T09:34:45.764Z,22.99
2023-10-23T09:37:48.263Z,24.82
2023-10-23T09:40:50.602Z,25.08
2023-10-23T09:43:55.054Z,26.13
2023-10-23T09:46:59.652Z,26.38
2023-10-23T09:50:05.123Z,25.90
2023-10-23T09:53:10.492Z,26.97
2023-10-23T09:56:24.769Z,27.61
2023-10-23T09:59:35.253Z,27.34
2023-10-23T10:02:37.999Z,27.47
2023-10-23T10:05:50.449Z,26.81
2023-10-23T10:08:56.932Z,26.47
2023-10-23T10:12:01.043Z,26.26
2023-10-23T10:15:05.162Z,26.95
2023-10-23T10:18:07.617Z,26.37
2023-10-23T10:21:12.425Z,27.36
2023-10-23T10:24:15.880Z,28.10
2023-10-23T10:27:18.699Z,28.01
2023-10-23T10:30:41.674Z,27.58
2023-10-23T10:34:27.848Z,27.71
2023-10-23T10:37:15.481Z,28.12
2023-10-23T10:40:27.792Z,28.60
2023-10-23T10:43:33.764Z,28.01
2023-10-23T10:46:37.817Z,28.33
2023-10-23T10:49:46.177Z,28.57
2023-10-23T10:52:48.586Z,29.20
2023-10-23T10:55:51.022Z,28.55
2023-10-23T10:58:53.551Z,28.01
2023-10-23T11:01:56.540Z,26.49
2023-10-23T11:04:59.059Z,24.79
2023-10-23T11:08:01.534Z,24.83
2023-10-23T11:11:07.713Z,25.11
2023-10-23T11:14:10.045Z,25.31
2023-10-23T11:17:12.853Z,25.49
2023-10-23T11:20:16.642Z,24.22
2023-10-23T11:23:19.624Z,23.85
2023-10-23T11:26:22.014Z,23.55
2023-10-23T11:29:24.456Z,23.12
2023-10-23T11:32:29.934Z,23.38
2023-10-23T11:35:33.106Z,23.25
2023-10-23T11:38:38.612Z,23.27
2023-10-23T11:41:41.346Z,22.76
2023-10-23T11:44:43.679Z,22.66
2023-10-23T11:47:47.094Z,22.15
2023-10-23T11:50:50.154Z,21.98
2023-10-23T11:53:52.533Z,21.83
2023-10-23T11:57:00.412Z,21.11
2023-10-23T12:00:08.308Z,21.85
2023-10-23T12:03:14.184Z,22.31
2023-10-23T12:06:16.720Z,21.82
2023-10-23T12:09:20.211Z,22.28
2023-10-23T12:12:22.619Z,22.49
2023-10-23T12:15:25.184Z,21.53
2023-10-23T12:18:29.264Z,21.59
2023-10-23T12:21:31.695Z,21.82
2023-10-23T12:24:34.049Z,21.63
2023-10-23T12:27:37.215Z,21.57
2023-10-23T12:30:39.647Z,21.85
2023-10-23T12:33:42.665Z,21.40
2023-10-23T12:36:45.302Z,21.13
2023-10-23T12:39:47.719Z,20.42
2023-10-23T12:42:50.166Z,20.30
2023-10-23T12:45:52.887Z,19.88
2023-10-23T12:48:55.388Z,20.03
2023-10-23T12:51:57.818Z,20.43
2023-10-23T12:55:00.349Z,20.23
2023-10-23T12:58:04.102Z,20.25
2023-10-23T13:01:06.546Z,20.56
2023-10-23T13:04:09.054Z,21.45
2023-10-23T13:07:11.517Z,22.47
2023-10-23T13:10:14.180Z,23.00
2023-10-23T13:13:16.582Z,23.20
2023-10-23T13:16:19.047Z,23.36
2023-10-23T13:19:21.494Z,23.89
2023-10-23T13:22:24.089Z,23.20
2023-10-23T13:25:26.583Z,23.24
2023-10-23T13:28:28.960Z,22.87
2023-10-23T13:31:31.555Z,22.57
2023-10-23T13:34:34.074Z,21.62
2023-10-23T13:37:36.670Z,21.27
2023-10-23T13:40:39.240Z,20.74
2023-10-23T13:43:41.917Z,20.70
2023-10-23T13:46:44.437Z,20.58
2023-10-23T13:49:46.851Z,20.25
2023-10-23T13:52:49.186Z,20.22
2023-10-23T13:55:51.917Z,20.11
2023-10-23T13:58:54.269Z,19.95
2023-10-23T14:01:56.687Z,20.24
2023-10-23T14:04:59.147Z,19.99
2023-10-23T14:08:02.408Z,20.03
2023-10-23T14:11:57.363Z,19.76
2023-10-23T14:14:29.973Z,19.61
2023-10-23T14:17:33.402Z,19.10
2023-10-23T14:20:35.948Z,18.98
2023-10-23T14:23:38.312Z,19.02
2023-10-23T14:26:40.697Z,19.00
2023-10-23T14:29:43.228Z,19.09
2023-10-23T14:32:45.834Z,18.93
2023-10-23T14:35:48.359Z,19.16
2023-10-23T14:38:50.750Z,19.35
2023-10-23T14:41:53.185Z,20.00
2023-10-23T14:44:55.632Z,20.48
2023-10-23T14:47:58.065Z,20.49
2023-10-23T14:51:00.746Z,20.47
2023-10-23T14:54:03.159Z,20.14
2023-10-23T14:57:05.786Z,20.07
2023-10-23T15:00:09.073Z,19.42
2023-10-23T15:03:11.448Z,18.91
2023-10-23T15:06:14.546Z,18.57
2023-10-23T15:09:18.444Z,18.09
2023-10-23T15:12:21.118Z,17.80
2023-10-23T15:15:23.631Z,17.54
2023-10-23T15:18:26.583Z,17.26
2023-10-23T15:21:28.993Z,16.78
2023-10-23T15:24:31.395Z,16.63
2023-10-23T15:27:33.973Z,16.50
2023-10-23T15:30:36.488Z,16.22
2023-10-23T15:33:39.092Z,16.03
2023-10-23T15:36:41.667Z,15.90
2023-10-23T15:39:45.324Z,15.65
2023-10-23T15:42:47.673Z,15.60
2023-10-23T15:45:52.955Z,15.49
2023-10-23T15:48:55.566Z,15.36
2023-10-23T15:51:58.052Z,15.29
2023-10-23T15:55:00.480Z,15.10
2023-10-23T15:58:04.706Z,15.10
2023-10-23T16:01:08.299Z,14.93
2023-10-23T16:04:10.829Z,14.92
2023-10-23T16:07:13.295Z,14.61
2023-10-23T16:10:15.792Z,14.44
2023-10-23T16:13:19.624Z,14.33
2023-10-23T16:16:22.153Z,14.42
2023-10-23T16:19:24.724Z,14.28
2023-10-23T16:22:27.995Z,14.05
2023-10-23T16:25:30.393Z,13.89
2023-10-23T16:28:32.835Z,13.77
2023-10-23T16:31:35.309Z,13.86
2023-10-23T16:34:37.848Z,13.57
2023-10-23T16:37:40.335Z,13.32
2023-10-23T16:40:42.674Z,13.26
2023-10-23T16:43:45.017Z,13.26
2023-10-23T16:46:47.933Z,13.09
2023-10-23T16:49:50.931Z,13.01
2023-10-23T16:52:53.347Z,12.77
2023-10-23T16:55:55.715Z,12.74
2023-10-23T16:58:58.186Z,12.62
2023-10-23T17:02:00.751Z,12.61
2023-10-23T17:05:03.414Z,12.75
2023-10-23T17:08:05.877Z,12.52
2023-10-23T17:11:11.121Z,12.43
2023-10-23T17:14:13.739Z,12.27
2023-10-23T17:17:16.319Z,12.22
2023-10-23T17:20:18.934Z,12.16
2023-10-23T17:23:21.326Z,12.02
2023-10-23T17:26:23.869Z,12.03
2023-10-23T17:29:26.592Z,11.93
2023-10-23T17:32:29.019Z,11.95
2023-10-23T17:35:31.429Z,11.61
2023-10-23T17:38:36.890Z,11.79
2023-10-23T17:41:39.537Z,11.74
2023-10-23T17:44:41.965Z,11.71
2023-10-23T17:47:44.543Z,11.67
2023-10-23T17:50:47.067Z,11.64
2023-10-23T17:56:56.005Z,11.63
2023-10-23T17:59:59.610Z,11.63
2023-10-23T18:03:02.096Z,11.57
2023-10-23T18:06:05.170Z,11.36
2023-10-23T18:09:07.926Z,11.35
2023-10-23T18:12:22.084Z,11.24
2023-10-23T18:15:33.661Z,11.26
2023-10-23T18:18:36.350Z,11.16
2023-10-23T18:21:38.944Z,11.11
2023-10-23T18:24:41.593Z,11.18
2023-10-23T18:27:44.042Z,11.02
2023-10-23T18:30:48.457Z,11.07
2023-10-23T18:33:50.837Z,10.99
2023-10-23T18:36:53.240Z,10.99
2023-10-23T18:39:55.672Z,11.03
2023-10-23T18:43:01.309Z,11.00
2023-10-23T18:46:04.368Z,11.04
2023-10-23T18:49:06.915Z,10.94
2023-10-23T18:52:09.335Z,10.80
2023-10-23T18:55:12.071Z,10.75
2023-10-23T18:58:14.492Z,10.80
2023-10-23T19:01:18.079Z,10.72
2023-10-23T19:04:20.935Z,10.72
2023-10-23T19:07:23.673Z,10.60
2023-10-23T19:10:26.225Z,10.42
2023-10-23T19:13:28.697Z,10.48
2023-10-23T19:16:31.187Z,10.38
2023-10-23T19:19:33.872Z,10.26
2023-10-23T19:22:37.144Z,10.38
2023-10-23T19:25:39.782Z,10.38
2023-10-23T19:28:42.386Z,10.17
2023-10-23T19:31:45.840Z,10.07
2023-10-23T19:34:48.988Z,9.94
2023-10-23T19:37:52.030Z,9.86
2023-10-23T19:41:01.775Z,9.74
2023-10-23T19:44:05.034Z,9.84
2023-10-23T19:47:08.070Z,9.80
2023-10-23T19:50:11.008Z,9.74
2023-10-23T19:53:16.167Z,9.75
2023-10-23T19:56:19.670Z,9.57
2023-10-23T19:59:31.690Z,9.64
2023-10-23T20:02:34.269Z,9.51
2023-10-23T20:05:36.898Z,9.60
2023-10-23T20:08:40.492Z,9.55
2023-10-23T20:11:42.914Z,9.56
2023-10-23T20:14:45.532Z,9.58
2023-10-23T20:17:48.101Z,9.45
2023-10-23T20:20:54.779Z,9.55
2023-10-23T20:23:57.266Z,9.45
2023-10-23T20:26:59.701Z,9.45
2023-10-23T20:30:02.208Z,9.49
2023-10-23T20:33:04.784Z,9.49
2023-10-23T20:36:07.573Z,9.56
2023-10-23T20:39:10.225Z,9.67
2023-10-23T20:42:12.629Z,9.69
2023-10-23T20:45:15.096Z,9.59
2023-10-23T20:48:17.426Z,9.49
2023-10-23T20:51:19.848Z,9.50
2023-10-23T20:54:22.934Z,9.41
2023-10-23T20:57:25.712Z,9.48
2023-10-23T21:00:28.049Z,9.54
2023-10-23T21:03:30.536Z,9.71
2023-10-23T21:06:33.862Z,9.77
2023-10-23T21:09:37.141Z,9.90
2023-10-23T21:12:39.620Z,10.08
2023-10-23T21:15:41.954Z,10.21
2023-10-23T21:18:44.373Z,10.32
2023-10-23T21:21:46.805Z,10.33
2023-10-23T21:24:49.150Z,10.44
2023-10-23T21:27:53.626Z,10.54
2023-10-23T21:30:56.595Z,10.56
2023-10-23T21:33:59.434Z,10.65
2023-10-23T21:37:01.897Z,10.74
2023-10-23T21:40:04.794Z,10.94
2023-10-23T21:43:07.224Z,10.79
2023-10-23T21:46:17.248Z,10.82
2023-10-23T21:49:20.247Z,10.77
2023-10-23T21:52:22.934Z,10.72
2023-10-23T21:55:25.817Z,10.76
2023-10-23T21:59:03.550Z,10.81
2023-10-23T22:01:54.077Z,10.79
2023-10-23T22:04:57.082Z,10.76
2023-10-23T22:07:59.963Z,10.89
2023-10-23T22:11:02.901Z,11.02
2023-10-23T22:14:06.468Z,10.78
2023-10-23T22:17:08.941Z,10.98
2023-10-23T22:20:12.201Z,11.09
2023-10-23T22:23:14.680Z,11.11
2023-10-23T22:26:17.156Z,10.87
2023-10-23T22:29:19.538Z,11.12
2023-10-23T22:32:21.887Z,11.28
2023-10-23T22:35:24.293Z,11.26
2023-10-23T22:38:26.660Z,11.36
2023-10-23T22:41:29.054Z,11.33
2023-10-23T22:44:31.395Z,11.30
2023-10-23T22:47:33.904Z,11.24
2023-10-23T22:50:36.682Z,10.98
2023-10-23T22:53:39.313Z,10.69
2023-10-23T22:56:41.832Z,10.55
2023-10-23T22:59:44.519Z,10.45
2023-10-23T23:02:47.332Z,10.42
2023-10-23T23:05:52.297Z,10.38
2023-10-23T23:08:57.598Z,10.24
2023-10-23T23:12:00.329Z,10.26
2023-10-23T23:15:04.400Z,10.25
2023-10-23T23:18:08.398Z,10.18
2023-10-23T23:21:13.348Z,10.21
2023-10-23T23:24:15.701Z,10.31
2023-10-23T23:27:18.097Z,10.37
2023-10-23T23:30:20.582Z,10.30
2023-10-23T23:33:23.132Z,10.32
2023-10-23T23:36:25.574Z,10.20
2023-10-23T23:39:27.927Z,10.13
2023-10-23T23:42:30.383Z,10.12
2023-10-23T23:45:32.757Z,10.16
2023-10-23T23:48:35.157Z,10.18
2023-10-23T23:51:37.726Z,10.23
2023-10-23T23:54:40.292Z,10.41
2023-10-23T23:57:42.787Z,10.44
